sensor_id;sensor_type;location;lat;lon;timestamp;P1;durP1;ratioP1;P2;durP2;ratioP2
35606;SDS011;21729;58.392;15.656;2022-12-29T00:01:54;1.40;;;1.08;;
35606;SDS011;21729;58.392;15.656;2022-12-29T00:04:23;1.20;;;1.10;;
35606;SDS011;21729;58.392;15.656;2022-12-29T00:06:50;1.52;;;1.20;;
35606;SDS011;21729;58.392;15.656;2022-12-29T00:09:19;1.10;;;1.00;;
35606;SDS011;21729;58.392;15.656;2022-12-29T00:11:46;1.10;;;1.00;;
35606;SDS011;21729;58.392;15.656;2022-12-29T00:14:15;2.10;;;1.50;;
35606;SDS011;21729;58.392;15.656;2022-12-29T00:17:00;1.20;;;1.07;;
35606;SDS011;21729;58.392;15.656;2022-12-29T00:19:28;1.25;;;1.15;;
35606;SDS011;21729;58.392;15.656;2022-12-29T00:22:13;1.15;;;1.05;;
35606;SDS011;21729;58.392;15.656;2022-12-29T00:24:59;1.20;;;1.10;;
35606;SDS011;21729;58.392;15.656;2022-12-29T00:27:43;1.33;;;1.23;;
35606;SDS011;21729;58.392;15.656;2022-12-29T00:30:28;1.08;;;1.08;;
35606;SDS011;21729;58.392;15.656;2022-12-29T00:33:13;3.37;;;1.40;;
35606;SDS011;21729;58.392;15.656;2022-12-29T00:36:01;1.43;;;1.30;;
35606;SDS011;21729;58.392;15.656;2022-12-29T00:38:31;1.38;;;1.27;;
35606;SDS011;21729;58.392;15.656;2022-12-29T00:41:19;1.65;;;1.55;;
35606;SDS011;21729;58.392;15.656;2022-12-29T00:44:04;2.03;;;1.25;;
35606;SDS011;21729;58.392;15.656;2022-12-29T00:46:32;1.80;;;1.17;;
35606;SDS011;21729;58.392;15.656;2022-12-29T00:48:59;1.58;;;1.48;;
35606;SDS011;21729;58.392;15.656;2022-12-29T00:51:48;1.63;;;1.48;;
35606;SDS011;21729;58.392;15.656;2022-12-29T00:54:16;1.42;;;1.33;;
35606;SDS011;21729;58.392;15.656;2022-12-29T00:56:43;2.25;;;1.58;;
35606;SDS011;21729;58.392;15.656;2022-12-29T00:59:12;1.70;;;1.60;;
35606;SDS011;21729;58.392;15.656;2022-12-29T01:01:40;2.22;;;1.73;;
35606;SDS011;21729;58.392;15.656;2022-12-29T01:04:07;1.85;;;1.40;;
35606;SDS011;21729;58.392;15.656;2022-12-29T01:06:35;1.60;;;1.50;;
35606;SDS011;21729;58.392;15.656;2022-12-29T01:09:05;2.72;;;1.70;;
35606;SDS011;21729;58.392;15.656;2022-12-29T01:11:51;2.10;;;1.80;;
35606;SDS011;21729;58.392;15.656;2022-12-29T01:14:18;3.10;;;1.73;;
35606;SDS011;21729;58.392;15.656;2022-12-29T01:16:46;2.28;;;1.58;;
35606;SDS011;21729;58.392;15.656;2022-12-29T01:19:13;2.28;;;1.60;;
35606;SDS011;21729;58.392;15.656;2022-12-29T01:21:41;2.42;;;1.58;;
35606;SDS011;21729;58.392;15.656;2022-12-29T01:24:09;2.15;;;1.60;;
35606;SDS011;21729;58.392;15.656;2022-12-29T01:26:36;1.90;;;1.65;;
35606;SDS011;21729;58.392;15.656;2022-12-29T01:29:03;2.25;;;1.60;;
35606;SDS011;21729;58.392;15.656;2022-12-29T01:31:31;2.00;;;1.80;;
35606;SDS011;21729;58.392;15.656;2022-12-29T01:33:58;3.38;;;1.90;;
35606;SDS011;21729;58.392;15.656;2022-12-29T01:36:25;2.90;;;1.70;;
35606;SDS011;21729;58.392;15.656;2022-12-29T01:38:52;3.17;;;1.75;;
35606;SDS011;21729;58.392;15.656;2022-12-29T01:41:21;1.95;;;1.65;;
35606;SDS011;21729;58.392;15.656;2022-12-29T01:43:50;3.55;;;1.77;;
35606;SDS011;21729;58.392;15.656;2022-12-29T01:46:23;3.13;;;1.90;;
35606;SDS011;21729;58.392;15.656;2022-12-29T01:48:55;2.80;;;1.80;;
35606;SDS011;21729;58.392;15.656;2022-12-29T01:51:29;2.78;;;1.88;;
35606;SDS011;21729;58.392;15.656;2022-12-29T01:53:59;3.88;;;2.13;;
35606;SDS011;21729;58.392;15.656;2022-12-29T01:56:31;3.63;;;2.00;;
35606;SDS011;21729;58.392;15.656;2022-12-29T01:59:00;2.15;;;1.70;;
35606;SDS011;21729;58.392;15.656;2022-12-29T02:01:29;2.97;;;1.70;;
35606;SDS011;21729;58.392;15.656;2022-12-29T02:03:56;3.40;;;1.70;;
35606;SDS011;21729;58.392;15.656;2022-12-29T02:06:26;2.10;;;1.77;;
35606;SDS011;21729;58.392;15.656;2022-12-29T02:08:55;3.50;;;1.90;;
35606;SDS011;21729;58.392;15.656;2022-12-29T02:11:23;5.03;;;2.00;;
35606;SDS011;21729;58.392;15.656;2022-12-29T02:13:54;3.60;;;1.90;;
35606;SDS011;21729;58.392;15.656;2022-12-29T02:16:26;3.70;;;1.97;;
35606;SDS011;21729;58.392;15.656;2022-12-29T02:22:11;3.28;;;2.15;;
35606;SDS011;21729;58.392;15.656;2022-12-29T02:27:58;2.65;;;2.15;;
35606;SDS011;21729;58.392;15.656;2022-12-29T02:30:54;2.78;;;1.88;;
35606;SDS011;21729;58.392;15.656;2022-12-29T02:33:39;2.75;;;2.00;;
35606;SDS011;21729;58.392;15.656;2022-12-29T02:36:23;3.58;;;2.47;;
35606;SDS011;21729;58.392;15.656;2022-12-29T02:38:59;3.00;;;1.95;;
35606;SDS011;21729;58.392;15.656;2022-12-29T02:41:32;4.30;;;2.10;;
35606;SDS011;21729;58.392;15.656;2022-12-29T02:44:04;3.10;;;1.98;;
35606;SDS011;21729;58.392;15.656;2022-12-29T02:46:41;3.58;;;2.08;;
35606;SDS011;21729;58.392;15.656;2022-12-29T02:49:13;2.80;;;2.00;;
35606;SDS011;21729;58.392;15.656;2022-12-29T02:51:47;2.00;;;1.80;;
35606;SDS011;21729;58.392;15.656;2022-12-29T02:54:19;3.47;;;2.10;;
35606;SDS011;21729;58.392;15.656;2022-12-29T02:57:05;2.33;;;1.90;;
35606;SDS011;21729;58.392;15.656;2022-12-29T02:59:34;2.40;;;2.00;;
35606;SDS011;21729;58.392;15.656;2022-12-29T03:02:08;2.17;;;1.90;;
35606;SDS011;21729;58.392;15.656;2022-12-29T03:05:02;2.45;;;1.90;;
35606;SDS011;21729;58.392;15.656;2022-12-29T03:07:38;4.27;;;1.70;;
35606;SDS011;21729;58.392;15.656;2022-12-29T03:10:14;3.33;;;1.88;;
35606;SDS011;21729;58.392;15.656;2022-12-29T03:12:54;2.58;;;1.80;;
35606;SDS011;21729;58.392;15.656;2022-12-29T03:15:48;4.40;;;2.10;;
35606;SDS011;21729;58.392;15.656;2022-12-29T03:18:28;3.65;;;1.90;;
35606;SDS011;21729;58.392;15.656;2022-12-29T03:21:05;3.03;;;1.90;;
35606;SDS011;21729;58.392;15.656;2022-12-29T03:23:35;2.63;;;1.90;;
35606;SDS011;21729;58.392;15.656;2022-12-29T03:26:05;3.30;;;1.88;;
35606;SDS011;21729;58.392;15.656;2022-12-29T03:28:37;2.63;;;1.70;;
35606;SDS011;21729;58.392;15.656;2022-12-29T03:31:07;2.30;;;1.60;;
35606;SDS011;21729;58.392;15.656;2022-12-29T03:33:38;2.50;;;1.88;;
35606;SDS011;21729;58.392;15.656;2022-12-29T03:36:08;2.33;;;1.53;;
35606;SDS011;21729;58.392;15.656;2022-12-29T03:38:39;1.50;;;1.40;;
35606;SDS011;21729;58.392;15.656;2022-12-29T03:41:10;2.90;;;1.60;;
35606;SDS011;21729;58.392;15.656;2022-12-29T03:43:40;2.67;;;1.60;;
35606;SDS011;21729;58.392;15.656;2022-12-29T03:46:07;3.15;;;1.70;;
35606;SDS011;21729;58.392;15.656;2022-12-29T03:48:34;3.28;;;1.52;;
35606;SDS011;21729;58.392;15.656;2022-12-29T03:51:03;2.80;;;1.60;;
35606;SDS011;21729;58.392;15.656;2022-12-29T03:53:30;1.67;;;1.58;;
35606;SDS011;21729;58.392;15.656;2022-12-29T03:55:57;2.70;;;1.50;;
35606;SDS011;21729;58.392;15.656;2022-12-29T03:58:25;2.73;;;1.50;;
35606;SDS011;21729;58.392;15.656;2022-12-29T04:00:52;2.17;;;1.30;;
35606;SDS011;21729;58.392;15.656;2022-12-29T04:03:19;2.83;;;1.40;;
35606;SDS011;21729;58.392;15.656;2022-12-29T04:05:46;1.60;;;1.40;;
35606;SDS011;21729;58.392;15.656;2022-12-29T04:08:14;1.47;;;1.23;;
35606;SDS011;21729;58.392;15.656;2022-12-29T04:10:41;2.17;;;1.42;;
35606;SDS011;21729;58.392;15.656;2022-12-29T04:13:08;2.38;;;1.08;;
35606;SDS011;21729;58.392;15.656;2022-12-29T04:15:35;1.95;;;1.23;;
35606;SDS011;21729;58.392;15.656;2022-12-29T04:18:03;2.22;;;1.25;;
35606;SDS011;21729;58.392;15.656;2022-12-29T04:20:30;2.95;;;1.48;;
35606;SDS011;21729;58.392;15.656;2022-12-29T04:23:15;2.08;;;1.23;;
35606;SDS011;21729;58.392;15.656;2022-12-29T04:25:44;1.52;;;1.30;;
35606;SDS011;21729;58.392;15.656;2022-12-29T04:28:11;1.30;;;1.20;;
35606;SDS011;21729;58.392;15.656;2022-12-29T04:30:38;1.67;;;1.17;;
35606;SDS011;21729;58.392;15.656;2022-12-29T04:33:06;1.20;;;1.00;;
35606;SDS011;21729;58.392;15.656;2022-12-29T04:35:33;1.92;;;1.15;;
35606;SDS011;21729;58.392;15.656;2022-12-29T04:38:00;1.33;;;1.20;;
35606;SDS011;21729;58.392;15.656;2022-12-29T04:40:29;1.17;;;1.02;;
35606;SDS011;21729;58.392;15.656;2022-12-29T04:42:56;1.20;;;1.00;;
35606;SDS011;21729;58.392;15.656;2022-12-29T04:45:23;1.45;;;1.00;;
35606;SDS011;21729;58.392;15.656;2022-12-29T04:47:50;1.30;;;1.15;;
35606;SDS011;21729;58.392;15.656;2022-12-29T04:50:17;1.20;;;1.10;;
35606;SDS011;21729;58.392;15.656;2022-12-29T04:52:44;2.15;;;1.20;;
35606;SDS011;21729;58.392;15.656;2022-12-29T04:55:12;1.73;;;1.10;;
35606;SDS011;21729;58.392;15.656;2022-12-29T04:57:40;1.30;;;1.02;;
35606;SDS011;21729;58.392;15.656;2022-12-29T05:00:08;1.65;;;1.10;;
35606;SDS011;21729;58.392;15.656;2022-12-29T05:02:36;1.70;;;1.10;;
35606;SDS011;21729;58.392;15.656;2022-12-29T05:05:03;1.25;;;1.02;;
35606;SDS011;21729;58.392;15.656;2022-12-29T05:07:31;1.10;;;1.00;;
35606;SDS011;21729;58.392;15.656;2022-12-29T05:09:58;1.00;;;1.00;;
35606;SDS011;21729;58.392;15.656;2022-12-29T05:12:25;1.10;;;1.00;;
35606;SDS011;21729;58.392;15.656;2022-12-29T05:14:57;1.20;;;1.00;;
35606;SDS011;21729;58.392;15.656;2022-12-29T05:17:25;1.05;;;0.95;;
35606;SDS011;21729;58.392;15.656;2022-12-29T05:19:52;1.05;;;1.00;;
35606;SDS011;21729;58.392;15.656;2022-12-29T05:22:19;1.05;;;0.93;;
35606;SDS011;21729;58.392;15.656;2022-12-29T05:24:46;1.10;;;1.00;;
35606;SDS011;21729;58.392;15.656;2022-12-29T05:27:13;0.90;;;0.90;;
35606;SDS011;21729;58.392;15.656;2022-12-29T05:29:40;1.25;;;0.95;;
35606;SDS011;21729;58.392;15.656;2022-12-29T05:32:09;1.00;;;1.00;;
35606;SDS011;21729;58.392;15.656;2022-12-29T05:34:36;0.98;;;0.90;;
35606;SDS011;21729;58.392;15.656;2022-12-29T05:37:03;0.95;;;0.90;;
35606;SDS011;21729;58.392;15.656;2022-12-29T05:39:30;1.10;;;0.90;;
35606;SDS011;21729;58.392;15.656;2022-12-29T05:41:57;1.20;;;0.90;;
35606;SDS011;21729;58.392;15.656;2022-12-29T05:44:24;1.35;;;1.02;;
35606;SDS011;21729;58.392;15.656;2022-12-29T05:46:51;1.00;;;1.00;;
35606;SDS011;21729;58.392;15.656;2022-12-29T05:49:20;1.08;;;0.98;;
35606;SDS011;21729;58.392;15.656;2022-12-29T05:51:47;1.25;;;0.90;;
35606;SDS011;21729;58.392;15.656;2022-12-29T05:54:14;1.20;;;1.05;;
35606;SDS011;21729;58.392;15.656;2022-12-29T05:56:41;1.30;;;0.90;;
35606;SDS011;21729;58.392;15.656;2022-12-29T05:59:08;0.90;;;0.90;;
35606;SDS011;21729;58.392;15.656;2022-12-29T06:01:35;1.00;;;0.90;;
35606;SDS011;21729;58.392;15.656;2022-12-29T06:04:02;0.83;;;0.83;;
35606;SDS011;21729;58.392;15.656;2022-12-29T06:06:31;1.10;;;1.10;;
35606;SDS011;21729;58.392;15.656;2022-12-29T06:08:58;0.90;;;0.90;;
35606;SDS011;21729;58.392;15.656;2022-12-29T06:11:25;1.00;;;0.90;;
35606;SDS011;21729;58.392;15.656;2022-12-29T06:13:52;0.95;;;0.95;;
35606;SDS011;21729;58.392;15.656;2022-12-29T06:16:19;1.03;;;0.93;;
35606;SDS011;21729;58.392;15.656;2022-12-29T06:18:46;1.00;;;1.00;;
35606;SDS011;21729;58.392;15.656;2022-12-29T06:21:14;0.80;;;0.80;;
35606;SDS011;21729;58.392;15.656;2022-12-29T06:23:42;1.00;;;1.00;;
35606;SDS011;21729;58.392;15.656;2022-12-29T06:26:09;0.90;;;0.90;;
35606;SDS011;21729;58.392;15.656;2022-12-29T06:28:36;1.10;;;1.08;;
35606;SDS011;21729;58.392;15.656;2022-12-29T06:31:03;1.23;;;1.10;;
35606;SDS011;21729;58.392;15.656;2022-12-29T06:33:30;1.00;;;1.00;;
35606;SDS011;21729;58.392;15.656;2022-12-29T06:35:57;0.90;;;0.90;;
35606;SDS011;21729;58.392;15.656;2022-12-29T06:38:25;1.30;;;1.10;;
35606;SDS011;21729;58.392;15.656;2022-12-29T06:40:53;0.90;;;0.90;;
35606;SDS011;21729;58.392;15.656;2022-12-29T06:43:20;1.08;;;0.98;;
35606;SDS011;21729;58.392;15.656;2022-12-29T06:45:47;0.85;;;0.85;;
35606;SDS011;21729;58.392;15.656;2022-12-29T06:48:14;1.55;;;1.00;;
35606;SDS011;21729;58.392;15.656;2022-12-29T06:50:43;1.08;;;1.00;;
35606;SDS011;21729;58.392;15.656;2022-12-29T06:53:11;1.20;;;1.02;;
35606;SDS011;21729;58.392;15.656;2022-12-29T06:55:38;0.90;;;0.90;;
35606;SDS011;21729;58.392;15.656;2022-12-29T06:58:06;0.88;;;0.88;;
35606;SDS011;21729;58.392;15.656;2022-12-29T07:00:33;1.10;;;1.00;;
35606;SDS011;21729;58.392;15.656;2022-12-29T07:03:00;1.00;;;0.90;;
35606;SDS011;21729;58.392;15.656;2022-12-29T07:05:28;0.90;;;0.90;;
35606;SDS011;21729;58.392;15.656;2022-12-29T07:07:57;1.10;;;0.90;;
35606;SDS011;21729;58.392;15.656;2022-12-29T07:10:25;1.00;;;1.00;;
35606;SDS011;21729;58.392;15.656;2022-12-29T07:12:52;0.93;;;0.93;;
35606;SDS011;21729;58.392;15.656;2022-12-29T07:15:20;0.88;;;0.88;;
35606;SDS011;21729;58.392;15.656;2022-12-29T07:17:48;1.10;;;1.10;;
35606;SDS011;21729;58.392;15.656;2022-12-29T07:20:15;1.00;;;1.00;;
35606;SDS011;21729;58.392;15.656;2022-12-29T07:22:42;1.10;;;1.00;;
35606;SDS011;21729;58.392;15.656;2022-12-29T07:25:10;1.00;;;1.00;;
35606;SDS011;21729;58.392;15.656;2022-12-29T07:27:37;1.30;;;1.20;;
35606;SDS011;21729;58.392;15.656;2022-12-29T07:30:04;1.30;;;1.17;;
35606;SDS011;21729;58.392;15.656;2022-12-29T07:32:33;0.95;;;0.93;;
35606;SDS011;21729;58.392;15.656;2022-12-29T07:35:01;1.00;;;1.00;;
35606;SDS011;21729;58.392;15.656;2022-12-29T07:37:28;1.05;;;0.93;;
35606;SDS011;21729;58.392;15.656;2022-12-29T07:39:56;1.17;;;1.05;;
35606;SDS011;21729;58.392;15.656;2022-12-29T07:42:23;1.10;;;1.00;;
35606;SDS011;21729;58.392;15.656;2022-12-29T07:44:50;1.05;;;0.85;;
35606;SDS011;21729;58.392;15.656;2022-12-29T07:47:17;0.80;;;0.80;;
35606;SDS011;21729;58.392;15.656;2022-12-29T07:49:45;0.85;;;0.85;;
35606;SDS011;21729;58.392;15.656;2022-12-29T07:52:12;1.20;;;1.10;;
35606;SDS011;21729;58.392;15.656;2022-12-29T07:54:40;1.00;;;0.90;;
35606;SDS011;21729;58.392;15.656;2022-12-29T07:57:07;1.13;;;1.02;;
35606;SDS011;21729;58.392;15.656;2022-12-29T07:59:34;0.90;;;0.90;;
35606;SDS011;21729;58.392;15.656;2022-12-29T08:02:01;1.20;;;0.88;;
35606;SDS011;21729;58.392;15.656;2022-12-29T08:04:28;0.80;;;0.80;;
35606;SDS011;21729;58.392;15.656;2022-12-29T08:06:56;0.70;;;0.70;;
35606;SDS011;21729;58.392;15.656;2022-12-29T08:09:23;0.80;;;0.80;;
35606;SDS011;21729;58.392;15.656;2022-12-29T08:11:50;0.85;;;0.82;;
35606;SDS011;21729;58.392;15.656;2022-12-29T08:14:18;0.77;;;0.77;;
35606;SDS011;21729;58.392;15.656;2022-12-29T08:16:45;0.70;;;0.70;;
35606;SDS011;21729;58.392;15.656;2022-12-29T08:19:12;1.00;;;0.73;;
35606;SDS011;21729;58.392;15.656;2022-12-29T08:21:40;0.70;;;0.70;;
35606;SDS011;21729;58.392;15.656;2022-12-29T08:24:08;0.60;;;0.60;;
35606;SDS011;21729;58.392;15.656;2022-12-29T08:26:36;0.60;;;0.60;;
35606;SDS011;21729;58.392;15.656;2022-12-29T08:29:03;0.80;;;0.80;;
35606;SDS011;21729;58.392;15.656;2022-12-29T08:31:30;1.10;;;0.90;;
35606;SDS011;21729;58.392;15.656;2022-12-29T08:33:57;0.70;;;0.70;;
35606;SDS011;21729;58.392;15.656;2022-12-29T08:36:25;1.08;;;0.98;;
35606;SDS011;21729;58.392;15.656;2022-12-29T08:38:52;0.80;;;0.80;;
35606;SDS011;21729;58.392;15.656;2022-12-29T08:41:20;0.70;;;0.70;;
35606;SDS011;21729;58.392;15.656;2022-12-29T08:43:47;0.60;;;0.60;;
35606;SDS011;21729;58.392;15.656;2022-12-29T08:46:15;0.80;;;0.80;;
35606;SDS011;21729;58.392;15.656;2022-12-29T08:48:43;1.33;;;0.80;;
35606;SDS011;21729;58.392;15.656;2022-12-29T08:51:10;0.98;;;0.80;;
35606;SDS011;21729;58.392;15.656;2022-12-29T08:53:38;0.73;;;0.73;;
35606;SDS011;21729;58.392;15.656;2022-12-29T08:56:05;0.88;;;0.88;;
35606;SDS011;21729;58.392;15.656;2022-12-29T08:58:36;0.70;;;0.70;;
35606;SDS011;21729;58.392;15.656;2022-12-29T09:01:03;0.80;;;0.80;;
35606;SDS011;21729;58.392;15.656;2022-12-29T09:03:31;1.20;;;0.90;;
35606;SDS011;21729;58.392;15.656;2022-12-29T09:05:58;0.70;;;0.70;;
35606;SDS011;21729;58.392;15.656;2022-12-29T09:08:25;0.82;;;0.82;;
35606;SDS011;21729;58.392;15.656;2022-12-29T09:10:52;0.80;;;0.80;;
35606;SDS011;21729;58.392;15.656;2022-12-29T09:13:19;1.07;;;1.00;;
35606;SDS011;21729;58.392;15.656;2022-12-29T09:15:48;1.02;;;0.80;;
35606;SDS011;21729;58.392;15.656;2022-12-29T09:18:15;0.90;;;0.90;;
35606;SDS011;21729;58.392;15.656;2022-12-29T09:20:42;1.00;;;0.90;;
35606;SDS011;21729;58.392;15.656;2022-12-29T09:23:09;0.88;;;0.88;;
35606;SDS011;21729;58.392;15.656;2022-12-29T09:25:36;0.88;;;0.80;;
35606;SDS011;21729;58.392;15.656;2022-12-29T09:28:03;0.90;;;0.90;;
35606;SDS011;21729;58.392;15.656;2022-12-29T09:30:32;0.93;;;0.90;;
35606;SDS011;21729;58.392;15.656;2022-12-29T09:33:01;0.73;;;0.73;;
35606;SDS011;21729;58.392;15.656;2022-12-29T09:35:28;0.70;;;0.70;;
35606;SDS011;21729;58.392;15.656;2022-12-29T09:37:55;0.80;;;0.80;;
35606;SDS011;21729;58.392;15.656;2022-12-29T09:40:26;0.75;;;0.75;;
35606;SDS011;21729;58.392;15.656;2022-12-29T09:43:02;0.75;;;0.75;;
35606;SDS011;21729;58.392;15.656;2022-12-29T09:45:40;0.60;;;0.60;;
35606;SDS011;21729;58.392;15.656;2022-12-29T09:48:14;0.70;;;0.70;;
35606;SDS011;21729;58.392;15.656;2022-12-29T09:50:44;0.80;;;0.77;;
35606;SDS011;21729;58.392;15.656;2022-12-29T09:53:15;0.80;;;0.75;;
35606;SDS011;21729;58.392;15.656;2022-12-29T09:55:47;0.80;;;0.80;;
35606;SDS011;21729;58.392;15.656;2022-12-29T09:58:17;0.80;;;0.80;;
35606;SDS011;21729;58.392;15.656;2022-12-29T10:00:52;0.90;;;0.90;;
35606;SDS011;21729;58.392;15.656;2022-12-29T10:03:26;0.90;;;0.90;;
35606;SDS011;21729;58.392;15.656;2022-12-29T10:06:04;0.82;;;0.82;;
35606;SDS011;21729;58.392;15.656;2022-12-29T10:08:37;0.73;;;0.73;;
35606;SDS011;21729;58.392;15.656;2022-12-29T10:11:11;0.80;;;0.80;;
35606;SDS011;21729;58.392;15.656;2022-12-29T10:13:49;0.85;;;0.85;;
35606;SDS011;21729;58.392;15.656;2022-12-29T10:16:29;0.70;;;0.70;;
35606;SDS011;21729;58.392;15.656;2022-12-29T10:19:12;1.13;;;0.93;;
35606;SDS011;21729;58.392;15.656;2022-12-29T10:22:05;0.77;;;0.77;;
35606;SDS011;21729;58.392;15.656;2022-12-29T10:24:41;1.45;;;0.85;;
35606;SDS011;21729;58.392;15.656;2022-12-29T10:27:11;0.65;;;0.65;;
35606;SDS011;21729;58.392;15.656;2022-12-29T10:29:41;0.70;;;0.70;;
35606;SDS011;21729;58.392;15.656;2022-12-29T10:32:15;0.55;;;0.55;;
35606;SDS011;21729;58.392;15.656;2022-12-29T10:34:51;1.70;;;0.90;;
35606;SDS011;21729;58.392;15.656;2022-12-29T10:37:24;0.80;;;0.80;;
35606;SDS011;21729;58.392;15.656;2022-12-29T10:39:57;0.90;;;0.80;;
35606;SDS011;21729;58.392;15.656;2022-12-29T10:42:26;1.30;;;0.90;;
35606;SDS011;21729;58.392;15.656;2022-12-29T10:44:54;1.15;;;0.70;;
35606;SDS011;21729;58.392;15.656;2022-12-29T10:47:24;0.70;;;0.70;;
35606;SDS011;21729;58.392;15.656;2022-12-29T10:49:56;0.52;;;0.52;;
35606;SDS011;21729;58.392;15.656;2022-12-29T10:52:25;0.80;;;0.80;;
35606;SDS011;21729;58.392;15.656;2022-12-29T10:54:54;1.20;;;0.80;;
35606;SDS011;21729;58.392;15.656;2022-12-29T10:57:25;0.60;;;0.60;;
35606;SDS011;21729;58.392;15.656;2022-12-29T10:59:55;0.90;;;0.60;;
35606;SDS011;21729;58.392;15.656;2022-12-29T11:02:25;0.40;;;0.40;;
35606;SDS011;21729;58.392;15.656;2022-12-29T11:05:15;0.53;;;0.53;;
35606;SDS011;21729;58.392;15.656;2022-12-29T11:07:49;0.88;;;0.50;;
35606;SDS011;21729;58.392;15.656;2022-12-29T11:10:19;0.75;;;0.43;;
35606;SDS011;21729;58.392;15.656;2022-12-29T11:12:54;1.00;;;0.60;;
35606;SDS011;21729;58.392;15.656;2022-12-29T11:15:23;0.68;;;0.50;;
35606;SDS011;21729;58.392;15.656;2022-12-29T11:17:51;0.53;;;0.53;;
35606;SDS011;21729;58.392;15.656;2022-12-29T11:20:27;0.50;;;0.50;;
35606;SDS011;21729;58.392;15.656;2022-12-29T11:22:59;0.52;;;0.50;;
35606;SDS011;21729;58.392;15.656;2022-12-29T11:25:26;0.57;;;0.50;;
35606;SDS011;21729;58.392;15.656;2022-12-29T11:27:57;1.00;;;0.50;;
35606;SDS011;21729;58.392;15.656;2022-12-29T11:30:27;2.05;;;0.88;;
35606;SDS011;21729;58.392;15.656;2022-12-29T11:32:56;1.25;;;0.70;;
35606;SDS011;21729;58.392;15.656;2022-12-29T11:35:32;1.80;;;0.80;;
35606;SDS011;21729;58.392;15.656;2022-12-29T11:38:02;2.83;;;0.90;;
35606;SDS011;21729;58.392;15.656;2022-12-29T11:40:30;1.00;;;0.60;;
35606;SDS011;21729;58.392;15.656;2022-12-29T11:43:03;1.25;;;0.68;;
35606;SDS011;21729;58.392;15.656;2022-12-29T11:45:33;0.88;;;0.70;;
35606;SDS011;21729;58.392;15.656;2022-12-29T11:48:06;2.67;;;0.90;;
35606;SDS011;21729;58.392;15.656;2022-12-29T11:50:37;0.80;;;0.50;;
35606;SDS011;21729;58.392;15.656;2022-12-29T11:53:13;1.60;;;0.88;;
35606;SDS011;21729;58.392;15.656;2022-12-29T11:55:50;1.33;;;0.70;;
35606;SDS011;21729;58.392;15.656;2022-12-29T11:58:19;0.60;;;0.60;;
35606;SDS011;21729;58.392;15.656;2022-12-29T12:00:46;0.50;;;0.50;;
35606;SDS011;21729;58.392;15.656;2022-12-29T12:03:17;0.95;;;0.52;;
35606;SDS011;21729;58.392;15.656;2022-12-29T12:05:48;0.60;;;0.60;;
35606;SDS011;21729;58.392;15.656;2022-12-29T12:08:22;0.65;;;0.57;;
35606;SDS011;21729;58.392;15.656;2022-12-29T12:10:59;0.60;;;0.57;;
35606;SDS011;21729;58.392;15.656;2022-12-29T12:13:33;0.40;;;0.40;;
35606;SDS011;21729;58.392;15.656;2022-12-29T12:16:06;0.55;;;0.55;;
35606;SDS011;21729;58.392;15.656;2022-12-29T12:18:39;0.60;;;0.60;;
35606;SDS011;21729;58.392;15.656;2022-12-29T12:21:18;0.90;;;0.50;;
35606;SDS011;21729;58.392;15.656;2022-12-29T12:26:55;1.00;;;0.80;;
35606;SDS011;21729;58.392;15.656;2022-12-29T12:29:27;0.70;;;0.60;;
35606;SDS011;21729;58.392;15.656;2022-12-29T12:32:04;0.80;;;0.60;;
35606;SDS011;21729;58.392;15.656;2022-12-29T12:34:37;1.00;;;0.60;;
35606;SDS011;21729;58.392;15.656;2022-12-29T12:37:31;0.60;;;0.50;;
35606;SDS011;21729;58.392;15.656;2022-12-29T12:40:39;0.60;;;0.60;;
35606;SDS011;21729;58.392;15.656;2022-12-29T12:43:34;0.98;;;0.60;;
35606;SDS011;21729;58.392;15.656;2022-12-29T12:46:19;0.80;;;0.75;;
35606;SDS011;21729;58.392;15.656;2022-12-29T12:49:17;0.55;;;0.55;;
35606;SDS011;21729;58.392;15.656;2022-12-29T12:52:05;0.50;;;0.50;;
35606;SDS011;21729;58.392;15.656;2022-12-29T12:54:46;0.90;;;0.67;;
35606;SDS011;21729;58.392;15.656;2022-12-29T12:57:36;0.67;;;0.67;;
35606;SDS011;21729;58.392;15.656;2022-12-29T13:00:12;0.52;;;0.47;;
35606;SDS011;21729;58.392;15.656;2022-12-29T13:02:46;3.17;;;0.70;;
35606;SDS011;21729;58.392;15.656;2022-12-29T13:05:28;0.85;;;0.68;;
35606;SDS011;21729;58.392;15.656;2022-12-29T13:11:18;0.55;;;0.55;;
35606;SDS011;21729;58.392;15.656;2022-12-29T13:13:54;0.80;;;0.50;;
35606;SDS011;21729;58.392;15.656;2022-12-29T13:16:34;0.63;;;0.63;;
35606;SDS011;21729;58.392;15.656;2022-12-29T13:19:08;0.50;;;0.50;;
35606;SDS011;21729;58.392;15.656;2022-12-29T13:21:51;1.50;;;0.60;;
35606;SDS011;21729;58.392;15.656;2022-12-29T13:24:28;1.25;;;0.70;;
35606;SDS011;21729;58.392;15.656;2022-12-29T13:27:10;0.60;;;0.60;;
35606;SDS011;21729;58.392;15.656;2022-12-29T13:29:43;0.60;;;0.60;;
35606;SDS011;21729;58.392;15.656;2022-12-29T13:32:22;0.60;;;0.60;;
35606;SDS011;21729;58.392;15.656;2022-12-29T13:35:04;0.52;;;0.52;;
35606;SDS011;21729;58.392;15.656;2022-12-29T13:37:44;1.20;;;0.52;;
35606;SDS011;21729;58.392;15.656;2022-12-29T13:40:16;0.50;;;0.50;;
35606;SDS011;21729;58.392;15.656;2022-12-29T13:42:49;1.20;;;0.50;;
35606;SDS011;21729;58.392;15.656;2022-12-29T13:45:18;1.63;;;0.60;;
35606;SDS011;21729;58.392;15.656;2022-12-29T13:47:48;0.50;;;0.50;;
35606;SDS011;21729;58.392;15.656;2022-12-29T13:50:21;1.45;;;0.63;;
35606;SDS011;21729;58.392;15.656;2022-12-29T13:52:53;1.23;;;0.50;;
35606;SDS011;21729;58.392;15.656;2022-12-29T13:55:28;1.40;;;0.70;;
35606;SDS011;21729;58.392;15.656;2022-12-29T13:58:03;1.00;;;0.68;;
35606;SDS011;21729;58.392;15.656;2022-12-29T14:00:37;1.00;;;0.60;;
35606;SDS011;21729;58.392;15.656;2022-12-29T14:03:26;0.70;;;0.68;;
35606;SDS011;21729;58.392;15.656;2022-12-29T14:06:20;1.23;;;0.63;;
35606;SDS011;21729;58.392;15.656;2022-12-29T14:08:50;2.22;;;0.52;;
35606;SDS011;21729;58.392;15.656;2022-12-29T14:11:20;1.05;;;0.65;;
35606;SDS011;21729;58.392;15.656;2022-12-29T14:13:52;0.70;;;0.55;;
35606;SDS011;21729;58.392;15.656;2022-12-29T14:16:29;0.80;;;0.60;;
35606;SDS011;21729;58.392;15.656;2022-12-29T14:19:05;1.08;;;0.70;;
35606;SDS011;21729;58.392;15.656;2022-12-29T14:21:39;1.98;;;0.60;;
35606;SDS011;21729;58.392;15.656;2022-12-29T14:24:26;2.83;;;0.73;;
35606;SDS011;21729;58.392;15.656;2022-12-29T14:33:27;1.63;;;0.70;;
35606;SDS011;21729;58.392;15.656;2022-12-29T14:35:55;2.10;;;0.70;;
35606;SDS011;21729;58.392;15.656;2022-12-29T14:38:30;3.40;;;0.98;;
35606;SDS011;21729;58.392;15.656;2022-12-29T14:46:47;1.20;;;0.70;;
35606;SDS011;21729;58.392;15.656;2022-12-29T14:49:22;0.98;;;0.60;;
35606;SDS011;21729;58.392;15.656;2022-12-29T14:51:53;4.80;;;1.02;;
35606;SDS011;21729;58.392;15.656;2022-12-29T14:54:44;2.20;;;0.70;;
35606;SDS011;21729;58.392;15.656;2022-12-29T14:57:25;1.73;;;0.80;;
35606;SDS011;21729;58.392;15.656;2022-12-29T15:02:45;2.42;;;0.80;;
35606;SDS011;21729;58.392;15.656;2022-12-29T15:05:32;1.30;;;0.73;;
35606;SDS011;21729;58.392;15.656;2022-12-29T15:08:03;2.20;;;0.82;;
35606;SDS011;21729;58.392;15.656;2022-12-29T15:10:35;1.17;;;0.95;;
35606;SDS011;21729;58.392;15.656;2022-12-29T15:13:13;2.33;;;0.98;;
35606;SDS011;21729;58.392;15.656;2022-12-29T15:15:42;1.48;;;0.82;;
35606;SDS011;21729;58.392;15.656;2022-12-29T15:18:23;3.72;;;1.17;;
35606;SDS011;21729;58.392;15.656;2022-12-29T15:20:53;3.25;;;1.10;;
35606;SDS011;21729;58.392;15.656;2022-12-29T15:23:23;1.98;;;0.90;;
35606;SDS011;21729;58.392;15.656;2022-12-29T15:25:53;3.53;;;0.93;;
35606;SDS011;21729;58.392;15.656;2022-12-29T15:28:21;1.30;;;0.80;;